Ober, Indiana
Current Conditions -  °F | °C
As of 5:15 PM on Wednesday 17 Dec 2014 (Local Time) from KOXI Reporting Station
Overcast Overcast  
Wind Chill: 18°   Ceiling: 3300
Heat Index: 26°   Visibility: 10mi
Dew Point: 20°   Wind: 8mph
Humidity: 76%   Direction: 290°WNW
Pressure: 30.23"   Gusts: NA
Location:  41.2954°N, 86.6039°W
Report Text: KOXI 172315Z AUTO 29007KT 10SM OVC033 M03/M07 A3023 RMK AO1 T10321069
Loading
Personal Weather Stations






























Interactive Weather Map New forecast layout! Learn more

10-Day Weather Forecast

Advertisements
Track Severe Weather on mobile